Arthur, West Virginia
Current Conditions -  °F | °C
As of 4:15 AM on Monday 22 Dec 2014 (Local Time) from KW99 Reporting Station
Haze Haze  
Wind Chill: 28°   Ceiling: Unl
Heat Index: 28°   Visibility: 5mi
Dew Point: 28°   Wind: 0mph
Humidity: 96%   Direction: NA
Pressure: 30.22"   Gusts: NA
Location:  38.9337°N, 79.1435°W
Report Text: KW99 220915Z AUTO 00000KT 5SM BR SCT039 M02/M02 A3022 RMK AO2 T10201025
Loading
Personal Weather Stations






























Interactive Weather Map New forecast layout! Learn more

10-Day Weather Forecast

Advertisements
Track Severe Weather on mobile